sensor_id;sensor_type;location;lat;lon;timestamp;pressure;altitude;pressure_sealevel;temperature;humidity
61573;BME280;47465;43.094;12.434;2024-01-16T00:01:55;97406.13;;;9.65;100.00
61573;BME280;47465;43.094;12.434;2024-01-16T00:04:24;97411.72;;;9.78;100.00
61573;BME280;47465;43.094;12.434;2024-01-16T00:06:52;97453.59;;;9.92;100.00
61573;BME280;47465;43.094;12.434;2024-01-16T00:09:18;97531.03;;;10.41;100.00
61573;BME280;47465;43.094;12.434;2024-01-16T00:11:48;97562.88;;;10.42;100.00
61573;BME280;47465;43.094;12.434;2024-01-16T00:14:27;97539.53;;;10.30;100.00
61573;BME280;47465;43.094;12.434;2024-01-16T00:16:55;97581.06;;;10.52;100.00
61573;BME280;47465;43.094;12.434;2024-01-16T00:19:21;97552.19;;;10.44;100.00
61573;BME280;47465;43.094;12.434;2024-01-16T00:21:52;97444.75;;;9.72;100.00
61573;BME280;47465;43.094;12.434;2024-01-16T00:24:21;97439.75;;;9.64;100.00
61573;BME280;47465;43.094;12.434;2024-01-16T00:26:47;97445.75;;;9.70;100.00
61573;BME280;47465;43.094;12.434;2024-01-16T00:29:18;97484.31;;;9.97;100.00
61573;BME280;47465;43.094;12.434;2024-01-16T00:31:47;97558.34;;;10.44;100.00
61573;BME280;47465;43.094;12.434;2024-01-16T00:34:13;97444.78;;;9.71;100.00
61573;BME280;47465;43.094;12.434;2024-01-16T00:36:41;97528.47;;;10.19;100.00
61573;BME280;47465;43.094;12.434;2024-01-16T00:39:09;97452.91;;;9.68;100.00
61573;BME280;47465;43.094;12.434;2024-01-16T00:41:35;97457.41;;;9.65;100.00
61573;BME280;47465;43.094;12.434;2024-01-16T00:44:02;97433.28;;;9.51;100.00
61573;BME280;47465;43.094;12.434;2024-01-16T00:46:31;97457.63;;;9.61;100.00
61573;BME280;47465;43.094;12.434;2024-01-16T00:49:04;97523.81;;;10.05;100.00
61573;BME280;47465;43.094;12.434;2024-01-16T00:51:32;97505.22;;;9.84;100.00
61573;BME280;47465;43.094;12.434;2024-01-16T00:53:58;97617.13;;;10.57;100.00
61573;BME280;47465;43.094;12.434;2024-01-16T00:56:24;97587.38;;;10.30;100.00
61573;BME280;47465;43.094;12.434;2024-01-16T00:58:53;97640.84;;;10.62;100.00
61573;BME280;47465;43.094;12.434;2024-01-16T01:01:20;97475.25;;;9.62;100.00
61573;BME280;47465;43.094;12.434;2024-01-16T01:03:46;97472.59;;;9.62;100.00
61573;BME280;47465;43.094;12.434;2024-01-16T01:06:13;97491.06;;;9.65;100.00
61573;BME280;47465;43.094;12.434;2024-01-16T01:08:40;97493.72;;;9.65;100.00
61573;BME280;47465;43.094;12.434;2024-01-16T01:11:08;97541.03;;;9.96;100.00
61573;BME280;47465;43.094;12.434;2024-01-16T01:13:36;97495.69;;;9.60;100.00
61573;BME280;47465;43.094;12.434;2024-01-16T01:16:04;97652.63;;;10.56;100.00
61573;BME280;47465;43.094;12.434;2024-01-16T01:18:33;97505.72;;;9.74;100.00
61573;BME280;47465;43.094;12.434;2024-01-16T01:20:59;97607.91;;;10.25;100.00
61573;BME280;47465;43.094;12.434;2024-01-16T01:23:26;97637.22;;;10.44;100.00
61573;BME280;47465;43.094;12.434;2024-01-16T01:25:52;97570.09;;;9.99;100.00
61573;BME280;47465;43.094;12.434;2024-01-16T01:28:18;97536.38;;;9.81;100.00
61573;BME280;47465;43.094;12.434;2024-01-16T01:30:46;97493.00;;;9.61;100.00
61573;BME280;47465;43.094;12.434;2024-01-16T01:33:12;97653.34;;;10.60;100.00
61573;BME280;47465;43.094;12.434;2024-01-16T01:35:41;97632.13;;;10.39;100.00
61573;BME280;47465;43.094;12.434;2024-01-16T01:38:09;97564.50;;;10.05;100.00
61573;BME280;47465;43.094;12.434;2024-01-16T01:40:37;97518.28;;;9.70;100.00
61573;BME280;47465;43.094;12.434;2024-01-16T01:43:19;97567.16;;;10.05;100.00
61573;BME280;47465;43.094;12.434;2024-01-16T01:45:48;97665.31;;;10.70;100.00
61573;BME280;47465;43.094;12.434;2024-01-16T01:48:25;97478.91;;;9.59;100.00
61573;BME280;47465;43.094;12.434;2024-01-16T01:50:53;97489.66;;;9.56;100.00
61573;BME280;47465;43.094;12.434;2024-01-16T01:53:23;97537.03;;;9.86;100.00
61573;BME280;47465;43.094;12.434;2024-01-16T01:55:54;97633.56;;;10.46;100.00
61573;BME280;47465;43.094;12.434;2024-01-16T01:58:25;97513.22;;;9.64;100.00
61573;BME280;47465;43.094;12.434;2024-01-16T02:00:51;97574.34;;;9.83;100.00
61573;BME280;47465;43.094;12.434;2024-01-16T02:03:20;97609.56;;;10.27;100.00
61573;BME280;47465;43.094;12.434;2024-01-16T02:05:51;97514.34;;;9.79;100.00
61573;BME280;47465;43.094;12.434;2024-01-16T02:08:17;97594.13;;;10.37;100.00
61573;BME280;47465;43.094;12.434;2024-01-16T02:10:47;97593.28;;;10.37;100.00
61573;BME280;47465;43.094;12.434;2024-01-16T02:13:18;97564.81;;;10.18;100.00
61573;BME280;47465;43.094;12.434;2024-01-16T02:15:46;97523.69;;;9.87;100.00
61573;BME280;47465;43.094;12.434;2024-01-16T02:18:17;97528.00;;;9.90;100.00
61573;BME280;47465;43.094;12.434;2024-01-16T02:20:46;97529.41;;;9.78;100.00
61573;BME280;47465;43.094;12.434;2024-01-16T02:23:21;97522.91;;;9.85;100.00
61573;BME280;47465;43.094;12.434;2024-01-16T02:25:53;97671.47;;;10.71;100.00
61573;BME280;47465;43.094;12.434;2024-01-16T02:28:19;97571.81;;;10.00;100.00
61573;BME280;47465;43.094;12.434;2024-01-16T02:30:45;97531.28;;;9.76;100.00
61573;BME280;47465;43.094;12.434;2024-01-16T02:33:13;97676.78;;;10.71;100.00
61573;BME280;47465;43.094;12.434;2024-01-16T02:35:39;97506.22;;;9.82;100.00
61573;BME280;47465;43.094;12.434;2024-01-16T02:38:11;97670.13;;;10.81;100.00
61573;BME280;47465;43.094;12.434;2024-01-16T02:40:38;97641.28;;;10.53;100.00
61573;BME280;47465;43.094;12.434;2024-01-16T02:43:06;97470.09;;;9.59;100.00
61573;BME280;47465;43.094;12.434;2024-01-16T02:45:33;97527.22;;;9.88;100.00
61573;BME280;47465;43.094;12.434;2024-01-16T02:48:02;97497.34;;;9.83;100.00
61573;BME280;47465;43.094;12.434;2024-01-16T02:50:29;97586.66;;;10.25;100.00
61573;BME280;47465;43.094;12.434;2024-01-16T02:52:55;97510.50;;;9.65;100.00
61573;BME280;47465;43.094;12.434;2024-01-16T02:55:23;97600.75;;;10.27;100.00
61573;BME280;47465;43.094;12.434;2024-01-16T02:57:51;97691.69;;;10.75;100.00
61573;BME280;47465;43.094;12.434;2024-01-16T03:00:18;97687.38;;;10.72;100.00
61573;BME280;47465;43.094;12.434;2024-01-16T03:02:49;97526.09;;;9.73;100.00
61573;BME280;47465;43.094;12.434;2024-01-16T03:05:15;97509.81;;;9.60;100.00
61573;BME280;47465;43.094;12.434;2024-01-16T03:07:44;97596.16;;;10.10;100.00
61573;BME280;47465;43.094;12.434;2024-01-16T03:10:10;97653.25;;;10.42;100.00
61573;BME280;47465;43.094;12.434;2024-01-16T03:12:36;97518.28;;;9.70;100.00
61573;BME280;47465;43.094;12.434;2024-01-16T03:15:06;97522.13;;;9.63;100.00
61573;BME280;47465;43.094;12.434;2024-01-16T03:17:32;97532.81;;;9.61;100.00
61573;BME280;47465;43.094;12.434;2024-01-16T03:20:07;97501.13;;;9.36;100.00
61573;BME280;47465;43.094;12.434;2024-01-16T03:22:33;97514.13;;;9.42;100.00
61573;BME280;47465;43.094;12.434;2024-01-16T03:25:01;97587.88;;;9.77;100.00
61573;BME280;47465;43.094;12.434;2024-01-16T03:27:28;97528.25;;;9.43;100.00
61573;BME280;47465;43.094;12.434;2024-01-16T03:29:54;97538.16;;;9.39;100.00
61573;BME280;47465;43.094;12.434;2024-01-16T03:32:21;97692.81;;;10.28;100.00
61573;BME280;47465;43.094;12.434;2024-01-16T03:34:47;97551.53;;;9.36;100.00
61573;BME280;47465;43.094;12.434;2024-01-16T03:37:15;97538.97;;;9.19;100.00
61573;BME280;47465;43.094;12.434;2024-01-16T03:39:42;97530.97;;;9.21;100.00
61573;BME280;47465;43.094;12.434;2024-01-16T03:42:10;97577.63;;;9.47;100.00
61573;BME280;47465;43.094;12.434;2024-01-16T03:44:38;97688.09;;;10.14;100.00
61573;BME280;47465;43.094;12.434;2024-01-16T03:47:05;97690.47;;;10.20;100.00
61573;BME280;47465;43.094;12.434;2024-01-16T03:49:32;97675.41;;;10.00;100.00
61573;BME280;47465;43.094;12.434;2024-01-16T03:52:01;97683.97;;;10.07;100.00
61573;BME280;47465;43.094;12.434;2024-01-16T03:54:27;97544.03;;;9.25;100.00
61573;BME280;47465;43.094;12.434;2024-01-16T03:56:58;97586.84;;;9.38;100.00
61573;BME280;47465;43.094;12.434;2024-01-16T03:59:31;97727.69;;;10.20;100.00
61573;BME280;47465;43.094;12.434;2024-01-16T04:02:00;97676.50;;;9.95;100.00
61573;BME280;47465;43.094;12.434;2024-01-16T04:04:26;97694.88;;;10.21;100.00
61573;BME280;47465;43.094;12.434;2024-01-16T04:06:53;97548.06;;;9.14;100.00
61573;BME280;47465;43.094;12.434;2024-01-16T04:09:25;97592.28;;;9.35;100.00
61573;BME280;47465;43.094;12.434;2024-01-16T04:11:55;97708.56;;;9.90;100.00
61573;BME280;47465;43.094;12.434;2024-01-16T04:14:21;97543.75;;;8.89;100.00
61573;BME280;47465;43.094;12.434;2024-01-16T04:16:50;97547.94;;;8.95;100.00
61573;BME280;47465;43.094;12.434;2024-01-16T04:19:16;97564.50;;;9.00;100.00
61573;BME280;47465;43.094;12.434;2024-01-16T04:21:44;97538.75;;;8.81;100.00
61573;BME280;47465;43.094;12.434;2024-01-16T04:24:13;97696.06;;;9.72;100.00
61573;BME280;47465;43.094;12.434;2024-01-16T04:26:47;97693.53;;;9.69;100.00
61573;BME280;47465;43.094;12.434;2024-01-16T04:29:13;97626.81;;;9.34;100.00
61573;BME280;47465;43.094;12.434;2024-01-16T04:31:39;97566.53;;;8.93;100.00
61573;BME280;47465;43.094;12.434;2024-01-16T04:34:06;97575.31;;;8.95;100.00
61573;BME280;47465;43.094;12.434;2024-01-16T04:36:32;97654.03;;;9.39;100.00
61573;BME280;47465;43.094;12.434;2024-01-16T04:38:58;97746.31;;;9.98;100.00
61573;BME280;47465;43.094;12.434;2024-01-16T04:41:28;97637.47;;;9.32;100.00
61573;BME280;47465;43.094;12.434;2024-01-16T04:43:54;97645.16;;;9.40;100.00
61573;BME280;47465;43.094;12.434;2024-01-16T04:46:23;97735.44;;;10.04;100.00
61573;BME280;47465;43.094;12.434;2024-01-16T04:48:49;97586.19;;;9.11;100.00
61573;BME280;47465;43.094;12.434;2024-01-16T04:51:24;97671.69;;;9.62;100.00
61573;BME280;47465;43.094;12.434;2024-01-16T04:53:55;97643.41;;;9.39;100.00
61573;BME280;47465;43.094;12.434;2024-01-16T04:56:26;97756.00;;;9.99;100.00
61573;BME280;47465;43.094;12.434;2024-01-16T04:58:56;97727.53;;;9.81;100.00
61573;BME280;47465;43.094;12.434;2024-01-16T05:01:36;97599.25;;;8.94;100.00
61573;BME280;47465;43.094;12.434;2024-01-16T05:04:09;97754.91;;;9.83;100.00
61573;BME280;47465;43.094;12.434;2024-01-16T05:07:05;97731.91;;;9.60;100.00
61573;BME280;47465;43.094;12.434;2024-01-16T05:12:43;97599.13;;;8.73;100.00
61573;BME280;47465;43.094;12.434;2024-01-16T05:15:22;97765.19;;;9.69;100.00
61573;BME280;47465;43.094;12.434;2024-01-16T05:18:15;97597.06;;;8.58;100.00
61573;BME280;47465;43.094;12.434;2024-01-16T05:20:58;97674.16;;;8.99;100.00
61573;BME280;47465;43.094;12.434;2024-01-16T05:23:30;97690.88;;;9.01;100.00
61573;BME280;47465;43.094;12.434;2024-01-16T05:25:56;97691.78;;;9.00;100.00
61573;BME280;47465;43.094;12.434;2024-01-16T05:28:22;97659.88;;;8.79;100.00
61573;BME280;47465;43.094;12.434;2024-01-16T05:31:10;97631.53;;;8.58;100.00
61573;BME280;47465;43.094;12.434;2024-01-16T05:36:37;97679.28;;;8.80;100.00
61573;BME280;47465;43.094;12.434;2024-01-16T05:39:03;97628.47;;;8.45;100.00
61573;BME280;47465;43.094;12.434;2024-01-16T05:41:48;97658.16;;;8.55;100.00
61573;BME280;47465;43.094;12.434;2024-01-16T05:44:46;97810.25;;;9.48;100.00
61573;BME280;47465;43.094;12.434;2024-01-16T05:48:52;97654.75;;;8.51;100.00
61573;BME280;47465;43.094;12.434;2024-01-16T05:50:58;97653.34;;;8.41;100.00
61573;BME280;47465;43.094;12.434;2024-01-16T05:53:32;97772.50;;;9.16;100.00
61573;BME280;47465;43.094;12.434;2024-01-16T05:59:59;97705.84;;;8.55;100.00
61573;BME280;47465;43.094;12.434;2024-01-16T06:02:30;97764.66;;;8.90;100.00
61573;BME280;47465;43.094;12.434;2024-01-16T06:05:00;97691.22;;;8.43;100.00
61573;BME280;47465;43.094;12.434;2024-01-16T06:07:26;97812.63;;;9.07;100.00
61573;BME280;47465;43.094;12.434;2024-01-16T06:09:52;97639.00;;;7.96;100.00
61573;BME280;47465;43.094;12.434;2024-01-16T06:12:17;97681.09;;;8.04;100.00
61573;BME280;47465;43.094;12.434;2024-01-16T06:14:46;97771.69;;;8.40;100.00
61573;BME280;47465;43.094;12.434;2024-01-16T06:17:16;97654.34;;;7.60;100.00
61573;BME280;47465;43.094;12.434;2024-01-16T06:19:42;97655.41;;;7.54;100.00
61573;BME280;47465;43.094;12.434;2024-01-16T06:22:10;97671.34;;;7.53;100.00
61573;BME280;47465;43.094;12.434;2024-01-16T06:24:39;97740.63;;;7.92;100.00
61573;BME280;47465;43.094;12.434;2024-01-16T06:27:16;97849.84;;;8.54;100.00
61573;BME280;47465;43.094;12.434;2024-01-16T06:29:52;97670.41;;;7.54;100.00
61573;BME280;47465;43.094;12.434;2024-01-16T06:38:46;97844.03;;;8.42;100.00
61573;BME280;47465;43.094;12.434;2024-01-16T06:48:53;97688.66;;;7.35;100.00
61573;BME280;47465;43.094;12.434;2024-01-16T06:51:30;97756.06;;;7.78;100.00
61573;BME280;47465;43.094;12.434;2024-01-16T06:54:20;97669.09;;;7.12;100.00
61573;BME280;47465;43.094;12.434;2024-01-16T06:57:02;97693.34;;;7.27;100.00
61573;BME280;47465;43.094;12.434;2024-01-16T06:59:32;97724.81;;;7.34;100.00
61573;BME280;47465;43.094;12.434;2024-01-16T07:05:13;97706.78;;;6.89;100.00
61573;BME280;47465;43.094;12.434;2024-01-16T07:07:50;97839.03;;;7.77;100.00
61573;BME280;47465;43.094;12.434;2024-01-16T07:10:21;97773.84;;;7.46;100.00
61573;BME280;47465;43.094;12.434;2024-01-16T07:12:48;97795.50;;;7.59;100.00
61573;BME280;47465;43.094;12.434;2024-01-16T07:18:27;97894.13;;;8.22;100.00
61573;BME280;47465;43.094;12.434;2024-01-16T07:21:17;97721.84;;;7.15;100.00
61573;BME280;47465;43.094;12.434;2024-01-16T07:24:00;97800.31;;;7.74;100.00
61573;BME280;47465;43.094;12.434;2024-01-16T07:26:29;97763.25;;;7.46;100.00
61573;BME280;47465;43.094;12.434;2024-01-16T07:50:56;97853.97;;;8.34;100.00
61573;BME280;47465;43.094;12.434;2024-01-16T07:53:22;97791.44;;;8.03;100.00
61573;BME280;47465;43.094;12.434;2024-01-16T07:55:50;97920.28;;;8.88;100.00
61573;BME280;47465;43.094;12.434;2024-01-16T08:02:12;97770.59;;;8.19;100.00
61573;BME280;47465;43.094;12.434;2024-01-16T08:18:47;97811.53;;;8.89;100.00
61573;BME280;47465;43.094;12.434;2024-01-16T08:31:16;97940.78;;;10.06;100.00
61573;BME280;47465;43.094;12.434;2024-01-16T08:34:06;97833.13;;;9.51;100.00
61573;BME280;47465;43.094;12.434;2024-01-16T08:37:01;97833.31;;;9.46;100.00
61573;BME280;47465;43.094;12.434;2024-01-16T08:39:39;97821.81;;;9.22;100.00
61573;BME280;47465;43.094;12.434;2024-01-16T08:42:26;97881.00;;;9.71;100.00
61573;BME280;47465;43.094;12.434;2024-01-16T08:45:05;97848.75;;;9.58;100.00
61573;BME280;47465;43.094;12.434;2024-01-16T08:50:22;97834.84;;;9.75;100.00
61573;BME280;47465;43.094;12.434;2024-01-16T08:51:11;97853.59;;;9.94;100.00
61573;BME280;47465;43.094;12.434;2024-01-16T08:55:03;97992.50;;;10.67;100.00
61573;BME280;47465;43.094;12.434;2024-01-16T08:58:14;97907.53;;;10.18;100.00
61573;BME280;47465;43.094;12.434;2024-01-16T09:01:01;97856.91;;;9.99;100.00
61573;BME280;47465;43.094;12.434;2024-01-16T09:03:35;97865.59;;;10.04;100.00
61573;BME280;47465;43.094;12.434;2024-01-16T09:06:13;97858.47;;;10.05;100.00
61573;BME280;47465;43.094;12.434;2024-01-16T09:08:48;97859.28;;;10.07;100.00
61573;BME280;47465;43.094;12.434;2024-01-16T09:11:24;97931.81;;;10.55;100.00
61573;BME280;47465;43.094;12.434;2024-01-16T09:13:56;97861.47;;;10.19;100.00
61573;BME280;47465;43.094;12.434;2024-01-16T09:16:36;97891.88;;;10.34;100.00
61573;BME280;47465;43.094;12.434;2024-01-16T09:25:47;97993.31;;;11.54;100.00
61573;BME280;47465;43.094;12.434;2024-01-16T09:28:16;98021.56;;;11.77;100.00
61573;BME280;47465;43.094;12.434;2024-01-16T09:30:42;97866.88;;;10.60;100.00
61573;BME280;47465;43.094;12.434;2024-01-16T09:33:17;97950.53;;;11.16;100.00
61573;BME280;47465;43.094;12.434;2024-01-16T09:35:51;97889.13;;;10.80;100.00
61573;BME280;47465;43.094;12.434;2024-01-16T09:41:47;97890.81;;;11.23;100.00
61573;BME280;47465;43.094;12.434;2024-01-16T09:48:30;97875.03;;;11.39;100.00
61573;BME280;47465;43.094;12.434;2024-01-16T09:53:59;97873.34;;;11.76;100.00
61573;BME280;47465;43.094;12.434;2024-01-16T09:56:39;97958.38;;;12.39;100.00
61573;BME280;47465;43.094;12.434;2024-01-16T09:59:35;97873.31;;;11.97;100.00
61573;BME280;47465;43.094;12.434;2024-01-16T10:02:05;98006.72;;;12.88;100.00
61573;BME280;47465;43.094;12.434;2024-01-16T10:04:34;97922.06;;;12.56;100.00
61573;BME280;47465;43.094;12.434;2024-01-16T10:07:31;97865.25;;;12.17;100.00
61573;BME280;47465;43.094;12.434;2024-01-16T10:10:55;97859.47;;;12.07;100.00
61573;BME280;47465;43.094;12.434;2024-01-16T10:17:22;97834.06;;;12.00;100.00
61573;BME280;47465;43.094;12.434;2024-01-16T10:20:33;97854.25;;;12.42;100.00
61573;BME280;47465;43.094;12.434;2024-01-16T10:23:54;97891.88;;;12.90;100.00
61573;BME280;47465;43.094;12.434;2024-01-16T10:27:00;97943.31;;;13.11;100.00
61573;BME280;47465;43.094;12.434;2024-01-16T10:29:53;97873.63;;;12.82;100.00
61573;BME280;47465;43.094;12.434;2024-01-16T10:40:00;97868.53;;;12.95;100.00
61573;BME280;47465;43.094;12.434;2024-01-16T10:42:28;97955.34;;;13.54;100.00
61573;BME280;47465;43.094;12.434;2024-01-16T10:45:21;97865.38;;;13.04;100.00
61573;BME280;47465;43.094;12.434;2024-01-16T10:48:08;97832.09;;;12.77;100.00
61573;BME280;47465;43.094;12.434;2024-01-16T10:50:39;97850.19;;;12.52;100.00
61573;BME280;47465;43.094;12.434;2024-01-16T10:53:47;97853.13;;;12.29;100.00
61573;BME280;47465;43.094;12.434;2024-01-16T10:56:21;97854.63;;;12.35;100.00
61573;BME280;47465;43.094;12.434;2024-01-16T11:02:57;97871.53;;;12.52;100.00
61573;BME280;47465;43.094;12.434;2024-01-16T11:05:37;97831.97;;;12.26;100.00
61573;BME280;47465;43.094;12.434;2024-01-16T11:16:10;97814.47;;;12.38;100.00
61573;BME280;47465;43.094;12.434;2024-01-16T11:19:01;97961.88;;;13.31;100.00
61573;BME280;47465;43.094;12.434;2024-01-16T12:07:14;97887.50;;;13.41;100.00
61573;BME280;47465;43.094;12.434;2024-01-16T12:09:43;97767.13;;;12.78;100.00
61573;BME280;47465;43.094;12.434;2024-01-16T12:12:12;97782.19;;;12.79;100.00
61573;BME280;47465;43.094;12.434;2024-01-16T12:14:46;97765.09;;;12.83;100.00
61573;BME280;47465;43.094;12.434;2024-01-16T12:17:19;97826.09;;;13.24;100.00
61573;BME280;47465;43.094;12.434;2024-01-16T12:19:45;97889.50;;;13.71;100.00
61573;BME280;47465;43.094;12.434;2024-01-16T12:22:19;97825.31;;;13.39;100.00
61573;BME280;47465;43.094;12.434;2024-01-16T12:24:47;97856.91;;;13.64;100.00
61573;BME280;47465;43.094;12.434;2024-01-16T12:27:13;97916.53;;;13.98;100.00
61573;BME280;47465;43.094;12.434;2024-01-16T12:29:40;97835.16;;;13.54;100.00
61573;BME280;47465;43.094;12.434;2024-01-16T12:32:09;97877.53;;;13.78;100.00
61573;BME280;47465;43.094;12.434;2024-01-16T12:34:38;97860.19;;;13.69;100.00
61573;BME280;47465;43.094;12.434;2024-01-16T12:37:09;97865.47;;;13.71;100.00
61573;BME280;47465;43.094;12.434;2024-01-16T12:39:38;97820.88;;;13.55;100.00
61573;BME280;47465;43.094;12.434;2024-01-16T12:42:05;97755.53;;;13.29;100.00
61573;BME280;47465;43.094;12.434;2024-01-16T12:44:31;97814.78;;;13.69;100.00
61573;BME280;47465;43.094;12.434;2024-01-16T12:46:57;97845.47;;;13.94;100.00
61573;BME280;47465;43.094;12.434;2024-01-16T12:49:24;97870.41;;;14.10;100.00
61573;BME280;47465;43.094;12.434;2024-01-16T12:52:14;97879.88;;;14.16;100.00
61573;BME280;47465;43.094;12.434;2024-01-16T12:54:43;97869.88;;;14.20;100.00
61573;BME280;47465;43.094;12.434;2024-01-16T12:57:10;97890.94;;;14.42;100.00
61573;BME280;47465;43.094;12.434;2024-01-16T12:59:42;97872.75;;;14.16;100.00
61573;BME280;47465;43.094;12.434;2024-01-16T13:02:22;97890.94;;;14.42;100.00
61573;BME280;47465;43.094;12.434;2024-01-16T13:04:58;97847.81;;;14.16;100.00
61573;BME280;47465;43.094;12.434;2024-01-16T13:07:25;97802.19;;;13.87;100.00
61573;BME280;47465;43.094;12.434;2024-01-16T13:10:13;97883.16;;;14.37;100.00
61573;BME280;47465;43.094;12.434;2024-01-16T13:12:48;97866.09;;;14.24;100.00
61573;BME280;47465;43.094;12.434;2024-01-16T13:15:14;97842.72;;;14.11;100.00
61573;BME280;47465;43.094;12.434;2024-01-16T13:17:42;97818.22;;;13.87;100.00
61573;BME280;47465;43.094;12.434;2024-01-16T13:20:09;97830.06;;;13.99;100.00
61573;BME280;47465;43.094;12.434;2024-01-16T13:22:38;97796.19;;;13.84;100.00
61573;BME280;47465;43.094;12.434;2024-01-16T13:25:06;97799.88;;;13.97;100.00
61573;BME280;47465;43.094;12.434;2024-01-16T13:27:36;97824.78;;;14.13;100.00
61573;BME280;47465;43.094;12.434;2024-01-16T13:30:20;97756.25;;;13.65;100.00
61573;BME280;47465;43.094;12.434;2024-01-16T13:32:46;97725.66;;;13.39;100.00
61573;BME280;47465;43.094;12.434;2024-01-16T13:35:12;97772.59;;;13.43;100.00
61573;BME280;47465;43.094;12.434;2024-01-16T13:37:39;97885.59;;;14.10;100.00
61573;BME280;47465;43.094;12.434;2024-01-16T13:40:06;97740.63;;;13.08;100.00
61573;BME280;47465;43.094;12.434;2024-01-16T13:42:45;97809.22;;;13.41;100.00
61573;BME280;47465;43.094;12.434;2024-01-16T13:45:20;97800.81;;;13.31;100.00
61573;BME280;47465;43.094;12.434;2024-01-16T13:47:50;97755.94;;;13.04;100.00
61573;BME280;47465;43.094;12.434;2024-01-16T13:50:19;97734.06;;;12.98;100.00
61573;BME280;47465;43.094;12.434;2024-01-16T13:52:53;97869.31;;;13.81;100.00
61573;BME280;47465;43.094;12.434;2024-01-16T13:55:23;97747.69;;;13.09;100.00
61573;BME280;47465;43.094;12.434;2024-01-16T13:58:08;97857.78;;;13.65;100.00
61573;BME280;47465;43.094;12.434;2024-01-16T14:00:41;97737.19;;;13.06;100.00
61573;BME280;47465;43.094;12.434;2024-01-16T14:03:07;97803.69;;;13.44;100.00
61573;BME280;47465;43.094;12.434;2024-01-16T14:05:33;97885.06;;;14.03;100.00
61573;BME280;47465;43.094;12.434;2024-01-16T14:08:08;97799.78;;;13.67;100.00
61573;BME280;47465;43.094;12.434;2024-01-16T14:10:43;97854.19;;;14.13;100.00
61573;BME280;47465;43.094;12.434;2024-01-16T14:13:12;97744.34;;;13.54;100.00
61573;BME280;47465;43.094;12.434;2024-01-16T14:15:38;97723.66;;;13.42;100.00
61573;BME280;47465;43.094;12.434;2024-01-16T14:18:05;97757.19;;;13.48;100.00
61573;BME280;47465;43.094;12.434;2024-01-16T14:20:31;97747.09;;;13.37;100.00
61573;BME280;47465;43.094;12.434;2024-01-16T14:22:57;97769.94;;;13.43;100.00
61573;BME280;47465;43.094;12.434;2024-01-16T14:25:35;97783.19;;;13.44;100.00
61573;BME280;47465;43.094;12.434;2024-01-16T14:28:03;97753.41;;;13.19;100.00
61573;BME280;47465;43.094;12.434;2024-01-16T14:30:36;97897.66;;;14.01;100.00
61573;BME280;47465;43.094;12.434;2024-01-16T14:33:03;97775.75;;;13.16;100.00
61573;BME280;47465;43.094;12.434;2024-01-16T14:35:45;97733.84;;;12.85;100.00
61573;BME280;47465;43.094;12.434;2024-01-16T14:38:28;97895.38;;;13.77;100.00
61573;BME280;47465;43.094;12.434;2024-01-16T14:40:58;97772.91;;;12.86;100.00
61573;BME280;47465;43.094;12.434;2024-01-16T14:43:25;97797.09;;;12.83;100.00
61573;BME280;47465;43.094;12.434;2024-01-16T14:45:55;97877.31;;;13.32;100.00
61573;BME280;47465;43.094;12.434;2024-01-16T14:48:32;97886.41;;;13.28;100.00
61573;BME280;47465;43.094;12.434;2024-01-16T14:51:01;97879.72;;;13.19;100.00
61573;BME280;47465;43.094;12.434;2024-01-16T14:53:33;97839.84;;;12.81;100.00
61573;BME280;47465;43.094;12.434;2024-01-16T14:56:05;97777.09;;;12.39;100.00
61573;BME280;47465;43.094;12.434;2024-01-16T14:58:44;97910.38;;;13.12;100.00
61573;BME280;47465;43.094;12.434;2024-01-16T15:01:50;97887.09;;;12.97;100.00
61573;BME280;47465;43.094;12.434;2024-01-16T15:09:11;97838.06;;;12.64;100.00
61573;BME280;47465;43.094;12.434;2024-01-16T15:11:51;97850.50;;;12.64;100.00
61573;BME280;47465;43.094;12.434;2024-01-16T15:14:21;97844.56;;;12.59;100.00
61573;BME280;47465;43.094;12.434;2024-01-16T15:16:48;97925.97;;;13.02;100.00
61573;BME280;47465;43.094;12.434;2024-01-16T15:19:16;97783.72;;;12.13;100.00
61573;BME280;47465;43.094;12.434;2024-01-16T15:21:45;97774.38;;;12.04;100.00
61573;BME280;47465;43.094;12.434;2024-01-16T15:24:15;97813.91;;;12.31;100.00
61573;BME280;47465;43.094;12.434;2024-01-16T15:26:45;97830.41;;;12.39;100.00
61573;BME280;47465;43.094;12.434;2024-01-16T15:29:11;97849.78;;;12.43;100.00
61573;BME280;47465;43.094;12.434;2024-01-16T15:31:37;97821.00;;;12.32;100.00
61573;BME280;47465;43.094;12.434;2024-01-16T15:34:06;97900.16;;;12.66;100.00
61573;BME280;47465;43.094;12.434;2024-01-16T15:36:36;97906.94;;;12.73;100.00
61573;BME280;47465;43.094;12.434;2024-01-16T15:39:04;97798.13;;;12.09;100.00
61573;BME280;47465;43.094;12.434;2024-01-16T15:41:30;97958.22;;;12.98;100.00
61573;BME280;47465;43.094;12.434;2024-01-16T15:43:56;97815.81;;;12.10;100.00
61573;BME280;47465;43.094;12.434;2024-01-16T15:46:25;97794.97;;;12.01;100.00
61573;BME280;47465;43.094;12.434;2024-01-16T15:48:51;97865.22;;;12.36;100.00
61573;BME280;47465;43.094;12.434;2024-01-16T15:51:21;97861.78;;;12.34;100.00
61573;BME280;47465;43.094;12.434;2024-01-16T15:53:47;97885.94;;;12.48;100.00
61573;BME280;47465;43.094;12.434;2024-01-16T15:56:13;97784.16;;;11.85;100.00
61573;BME280;47465;43.094;12.434;2024-01-16T15:58:40;97912.25;;;12.56;100.00
61573;BME280;47465;43.094;12.434;2024-01-16T16:01:08;97821.38;;;12.05;100.00
61573;BME280;47465;43.094;12.434;2024-01-16T16:03:40;97818.16;;;11.99;100.00
61573;BME280;47465;43.094;12.434;2024-01-16T16:06:08;97808.50;;;11.96;100.00